Airfield :
LOGIN :

Register | Disclaimer

   EN    FR    IT 

 










Legend :    VFR   Marginal VFR   IFR   Intensive IFR   Very Intensive IFR
Visi :
Ceiling :
>= 8 km
>= 3000ft
5 to 8 km
1000 to 3000 ft
1500m to 5 km
500 to 1000 ft
800 to 1500m
200 to 500 ft
< 800m
< 200 ft
Symbols :   Thunderstorms  Fog  Heavy snow  Heavy precipitations  Wind > 20 kt
SIGMETs :     Misc.  Thunderstorms  Icing  Turbulence  Mountain Waves  Volcanic Ashes






- Airport Elevation : 870 ft
- IATA code : ETZ


LFJL - Metz Nancy Lorraine

CURRENT METAR :
  • 091530Z AUTO 29017KT 9999 BKN018 OVC025 06/04 Q1008 TEMPO 26020G30KT 4000 SHRA BKN014 SCT020TCU

EXPIRED METARs :
  • 091500Z AUTO 29016KT 9999 FEW008 BKN016 OVC024 06/05 Q1007 TEMPO 26020G30KT 4000 SHRA BKN014 SCT020TCU
  • 091430Z AUTO 29013KT 9999 BKN017/// BKN048/// BKN064/// ///TCU 07/05 Q1006 TEMPO 26020G30KT 4000 SHRA BKN014 SCT020TCU
  • 091400Z AUTO 29016KT 9999 BKN013 BKN130 07/05 Q1005 TEMPO 26020G30KT 4000 SHRA BKN014 SCT020TCU
  • 091330Z AUTO 28012KT 9999 OVC010/// ///TCU 06/05 Q1004 TEMPO 26020G30KT 4000 SHRA
  • 091300Z AUTO 27013KT 9999 OVC015/// ///TCU 06/05 Q1004 TEMPO 26020G30KT 4000 SHRA BKN014 SCT020TCU

TAF TAF LFJL
Valid from the 09 at 12:00 until the 10 at 12:00 UTC


091100Z 0912/1012 24015KT 9999 BKN020
TEMPO 0912/0921 26020G30KT 4000 SHRA BKN014 SCT020TCU
BECMG 0921/0924 30010KT CAVOK
BECMG 1001/1004 VRB03KT 4000 BR
TEMPO 1005/1011 0400 FG VV///



MET'MAP, your aeronautical weather chart ! - Copyright ORBIFLY December 2007 - Disclaimer

ORBIFLY MET'MAP TEAM :

Programming & Development : Alexandra Zaïnal
Concept & original design : Baudouin d'Aumeries
Assistance for programming : Marc-Olivier Méhu
Technical & hardware support : Manuel Goepfert

Contact : metmap@orbifly.com




SOURCES & CREDITS :

   NOAA